首页
METAR-TAF:

METAR-TAF

机场 :

杰克逊维尔, 佛罗里达州, 美国

纬度: 30-20-10N, 经度: 081-30-53W, 海拔: 12米

当前天气观测

该预报发布于42分钟前的10:53 UTC
静风
温度 5°C
湿度 100%
气压 1019 hPa
能見度: 16.1公里
天空无云

METAR: KCRG 181053Z 00000KT 10SM CLR 05/05 A3009 RMK AO2 SLP189 T00500050

时间: 06:35 (11:35 UTC)

预报

该预报发布于15分钟前的11:20 UTC
预报有效从18日的 12点(UTC)到 19日的 12点(UTC)
风速节,风向
能見度: 10公里
多云层高于25000英尺
从 18日的 1400点(UTC)
风速5节,风向北转西北
能見度: 10公里
散云层高于25000英尺

TAF: KCRG 181120Z 1812/1912 00000KT P6SM BKN250 FM181400 33005KT P6SM SCT250

超过4000个机场的气象观测和天气预报(METAR&TAF报告)。

可查询的气象台以黄色和红色小点在地图上表示。

将鼠标移到小点上方,可查看气象台名称。

然后点击查看天气观测和预报。

如需切换地图:点击带黑十字的绿色按钮放大地图;点击带横线的绿色按钮缩小地图;或者点击绿色箭头查看邻近地区的地图。


METAR-TAF: